Latest Weather Observations for Roseworthy

IDS60801

Issued at 7:31 pm CST Saturday 27 August 2016 (issued every 30 minutes, with the page automatically refreshed every 10 minutes)

About weather observations | Map of weather stations | Latest weather observations for SA | Other Formats
Station Details ID: 023122 Name: ROSEWORTHY AWS Lat: -34.51 Lon: 138.68 Height: 65.0 m
Data from the previous 72 hours. | See also: Recent months at Roseworthy
Date/Time
CST
Temp
°C
App
Temp
°C
Dew
Point
°C
Rel
Hum
%
Delta-T
°C
Wind Press
QNH
hPa
Press
MSL
hPa
Rain since
9am
mm
Dir  Spd
km/h
Gust
km/h
Spd
kts
Gust
kts
27/07:30pm 9.5 5.4 6.2 80 1.5 NE 17 17 9 9 1018.7 - 0.0
27/07:00pm 9.3 5.6 6.2 81 1.4 NNE 15 17 8 9 1018.7 - 0.0
27/06:30pm 10.1 6.6 7.0 81 1.5 NNE 15 15 8 8 1018.4 - 0.0
27/06:00pm 10.7 7.9 6.8 77 1.8 N 11 13 6 7 1018.2 1018.4 0.0
27/05:30pm 12.2 9.2 7.5 73 2.3 N 13 13 7 7 1017.8 - 0.0
27/05:00pm 13.6 11.3 8.9 73 2.4 N 11 13 6 7 1017.8 - 0.0
27/04:30pm 15.2 11.5 6.2 55 4.4 NNW 15 19 8 10 1017.8 - 0.0
27/04:00pm 16.4 11.2 5.4 48 5.3 NNW 22 28 12 15 1017.9 - 0.0
27/03:30pm 16.6 10.9 4.9 46 5.6 NNW 24 32 13 17 1018.2 - 0.0
27/03:00pm 16.8 11.3 6.0 49 5.3 NNW 24 30 13 16 1018.2 1018.4 0.0
27/02:30pm 16.8 10.4 5.4 47 5.5 NNW 28 41 15 22 1018.6 - 0.0
27/02:00pm 16.7 11.1 7.1 53 4.8 NNW 26 35 14 19 1019.1 - 0.0
27/01:30pm 16.2 10.6 7.2 55 4.5 NNW 26 35 14 19 1019.5 - 0.0
27/01:00pm 15.7 10.1 7.2 57 4.2 NNW 26 32 14 17 1019.8 - 0.0
27/12:30pm 15.8 10.1 6.8 55 4.4 NNW 26 33 14 18 1020.4 - 0.0
27/12:00pm 15.1 9.2 5.9 54 4.4 NNW 26 33 14 18 1021.0 1021.2 0.0
27/11:30am 15.6 9.6 5.2 50 4.9 NNW 26 35 14 19 1021.5 - 0.0
27/11:00am 15.3 9.6 6.6 56 4.2 NNW 26 33 14 18 1021.6 - 0.0
27/10:30am 14.3 10.2 7.8 65 3.2 N 19 26 10 14 1021.7 - 0.0
27/10:00am 13.0 8.7 7.2 68 2.8 N 19 24 10 13 1021.9 - 0.0
27/09:30am 11.9 7.5 6.6 70 2.5 N 19 24 10 13 1022.0 - 0.0
27/09:00am 10.5 5.8 5.9 73 2.1 NNE 20 24 11 13 1022.3 1022.5 0.0
27/08:30am 8.6 3.6 4.6 76 1.8 N 20 28 11 15 1022.4 - 0.0
27/08:00am 6.7 1.8 3.9 82 1.2 NE 19 24 10 13 1022.2 - 0.0
27/07:30am 5.5 1.2 3.3 86 0.9 NE 15 17 8 9 1022.1 - 0.0
27/07:00am 5.1 -0.2 2.8 85 0.9 NNE 20 28 11 15 1022.0 - 0.0
27/06:30am 3.7 -1.6 1.9 88 0.7 NE 19 20 10 11 1021.8 - 0.0
27/06:00am 3.8 -1.5 1.8 87 0.8 NE 19 20 10 11 1021.6 1021.8 0.0
27/05:30am 3.4 -1.2 1.4 87 0.8 NE 15 20 8 11 1021.7 - 0.0
27/05:00am 3.9 -1.4 1.9 87 0.8 NE 19 20 10 11 1021.7 - 0.0
27/04:30am 3.3 -2.1 1.5 88 0.7 NE 19 20 10 11 1021.7 - 0.0
27/04:00am 3.4 -1.9 1.6 88 0.7 NE 19 22 10 12 1021.7 - 0.0
27/03:30am 3.6 -1.7 1.8 88 0.7 NE 19 22 10 12 1021.8 - 0.0
27/03:00am 3.3 -1.6 1.7 89 0.6 NE 17 20 9 11 1022.1 1022.3 0.0
27/02:30am 3.3 -1.6 1.7 89 0.6 NE 17 20 9 11 1022.4 - 0.0
27/02:00am 3.3 -1.3 1.7 89 0.6 NE 15 19 8 10 1022.4 - 0.0
27/01:30am 3.3 -1.6 1.7 89 0.6 NE 17 19 9 10 1022.7 - 0.0
27/01:00am 3.5 -1.4 1.7 88 0.7 NE 17 20 9 11 1022.7 - 0.0
27/12:30am 3.8 -1.1 2.0 88 0.7 NE 17 20 9 11 1022.7 - 0.0
27/12:00am 3.8 -1.1 2.2 89 0.6 NE 17 19 9 10 1022.9 1023.1 0.0
 
Date/Time
CST
Temp
°C
App
Temp
°C
Dew
Point
°C
Rel
Hum
%
Delta-T
°C
Wind Press
QNH
hPa
Press
MSL
hPa
Rain since
9am
mm
Dir  Spd
km/h
Gust
km/h
Spd
kts
Gust
kts
26/11:30pm 4.3 -0.5 2.5 88 0.7 NE 17 20 9 11 1023.1 - 0.0
26/11:00pm 3.9 -0.6 2.3 89 0.6 NE 15 19 8 10 1023.6 - 0.0
26/10:30pm 4.0 -0.9 2.2 88 0.7 NE 17 19 9 10 1023.6 - 0.0
26/10:00pm 3.5 -1.0 1.9 89 0.6 NE 15 17 8 9 1023.7 - 0.0
26/09:30pm 3.2 -1.4 1.6 89 0.6 NE 15 15 8 8 1023.7 - 0.0
26/09:00pm 3.3 -1.3 1.7 89 0.6 NE 15 17 8 9 1023.9 1024.0 0.0
26/08:30pm 3.4 -0.4 1.8 89 0.6 NE 11 13 6 7 1024.0 - 0.0
26/08:00pm 3.8 0.1 2.2 89 0.6 NE 11 13 6 7 1024.0 - 0.0
26/07:30pm 4.7 1.1 3.0 89 0.7 NE 11 13 6 7 1023.9 - 0.0
26/07:00pm 4.1 1.1 2.0 86 0.8 NNE 7 9 4 5 1023.7 - 0.0
26/06:30pm 5.4 3.8 2.4 81 1.2 CALM 0 0 0 0 1023.5 - 0.0
26/06:00pm 8.0 6.6 3.7 74 1.8 CALM 0 0 0 0 1023.2 1023.4 0.0
26/05:30pm 11.0 9.0 4.5 64 2.9 S 4 7 2 4 1023.0 - 0.0
26/05:00pm 13.1 11.0 5.8 61 3.4 SSW 6 7 3 4 1023.0 - 0.0
26/04:30pm 12.8 10.1 3.5 53 4.2 SSW 7 11 4 6 1022.8 - 0.0
26/04:00pm 12.9 10.0 4.6 57 3.8 SSW 9 11 5 6 1022.8 - 0.0
26/03:30pm 13.5 10.3 4.9 56 4.0 SW 11 15 6 8 1022.8 - 0.0
26/03:00pm 12.5 8.6 3.2 53 4.1 W 13 17 7 9 1023.0 1023.2 0.0
26/02:30pm 13.4 9.6 5.8 60 3.6 SW 15 20 8 11 1023.1 - 0.0
26/02:00pm 13.0 9.1 5.2 59 3.6 SW 15 20 8 11 1023.3 - 0.0
26/01:30pm 13.0 9.4 4.9 58 3.7 SW 13 17 7 9 1023.5 - 0.0
26/01:00pm 12.6 10.4 6.0 64 3.1 WNW 7 11 4 6 1023.9 - 0.0
26/12:30pm 12.1 9.5 6.2 67 2.8 WSW 9 15 5 8 1024.4 - 0.0
26/12:00pm 12.5 9.7 3.2 53 4.1 SSW 7 11 4 6 1024.7 1024.8 0.0
26/11:30am 12.7 10.2 4.9 59 3.6 W 7 11 4 6 1025.0 - 0.0
26/11:00am 11.7 9.3 6.8 72 2.3 NW 9 13 5 7 1025.4 - 0.0
26/10:30am 11.0 8.3 7.5 79 1.7 WNW 11 15 6 8 1025.4 - 0.0
26/10:00am 10.8 8.1 7.5 80 1.6 WNW 11 13 6 7 1025.4 - 0.0
26/09:30am 10.2 8.5 7.6 84 1.2 NW 6 9 3 5 1025.4 - 0.0
26/09:00am 9.2 7.9 7.5 89 0.8 NNW 4 7 2 4 1025.4 1025.5 0.0
26/08:30am 8.3 5.5 7.1 92 0.6 NNW 11 13 6 7 1025.3 - 0.0
26/08:00am 7.8 4.6 6.9 94 0.4 N 13 17 7 9 1025.1 - 0.0
26/07:30am 5.4 3.0 4.5 94 0.4 NE 6 7 3 4 1025.0 - 0.0
26/07:00am 3.0 -0.8 1.8 92 0.5 NNE 11 11 6 6 1024.5 - 0.0
26/06:30am 3.3 -0.5 2.0 91 0.5 N 11 11 6 6 1024.3 - 0.0
26/06:00am 4.7 1.6 3.4 91 0.5 NNE 9 11 5 6 1023.7 1023.9 0.0
26/05:30am 6.1 3.3 5.1 93 0.4 N 9 11 5 6 1023.3 - 0.0
26/05:00am 6.0 3.2 5.0 93 0.4 NNE 9 11 5 6 1023.2 - 0.0
26/04:30am 6.2 3.0 5.2 93 0.4 NNE 11 13 6 7 1022.9 - 0.0
26/04:00am 5.9 3.0 4.9 93 0.4 N 9 11 5 6 1022.9 - 0.0
26/03:30am 6.1 3.3 5.1 93 0.4 N 9 9 5 5 1022.9 - 0.0
26/03:00am 6.4 5.0 5.4 93 0.4 E 2 7 1 4 1022.9 1023.1 0.0
26/02:30am 5.8 4.6 4.6 92 0.5 CALM 0 0 0 0 1022.9 - 0.0
26/02:00am 6.1 4.6 4.9 92 0.5 E 2 9 1 5 1022.9 - 0.0
26/01:30am 6.8 5.8 5.6 92 0.5 CALM 0 6 0 3 1023.0 - 0.0
26/01:00am 7.1 5.4 5.9 92 0.5 NNE 4 7 2 4 1023.0 - 0.0
26/12:30am 7.0 4.7 5.9 93 0.5 NE 7 11 4 6 1022.8 - 0.0
26/12:00am 6.7 4.4 5.7 93 0.4 NNE 7 9 4 5 1022.9 1023.1 0.0
 
Date/Time
CST
Temp
°C
App
Temp
°C
Dew
Point
°C
Rel
Hum
%
Delta-T
°C
Wind Press
QNH
hPa
Press
MSL
hPa
Rain since
9am
mm
Dir  Spd
km/h
Gust
km/h
Spd
kts
Gust
kts
25/11:30pm 6.4 4.0 5.4 93 0.4 N 7 9 4 5 1023.0 - 0.0
25/11:00pm 5.6 3.1 4.6 93 0.4 NE 7 9 4 5 1022.9 - 0.0
25/10:30pm 4.9 1.8 3.7 92 0.5 N 9 11 5 6 1022.9 - 0.0
25/10:00pm 5.2 2.2 3.9 91 0.5 N 9 11 5 6 1022.8 - 0.0
25/09:30pm 6.5 5.4 5.1 91 0.6 CALM 0 0 0 0 1022.8 - 0.0
25/09:00pm 7.4 6.1 6.2 92 0.5 NE 2 9 1 5 1022.7 1022.9 0.0
25/08:30pm 5.8 4.6 4.6 92 0.5 CALM 0 0 0 0 1022.4 - 0.0
25/08:00pm 4.2 2.6 2.2 87 0.8 CALM 0 0 0 0 1022.3 - 0.0
25/07:30pm 5.7 4.2 3.2 84 1.0 CALM 0 0 0 0 1021.9 - 0.0
25/07:00pm 5.5 2.3 3.3 86 0.9 W 9 11 5 6 1021.7 - 0.0
25/06:30pm 7.3 5.1 5.1 86 1.0 W 6 7 3 4 1021.3 - 0.0
25/06:00pm 9.4 7.1 5.8 78 1.6 SW 7 11 4 6 1021.1 1021.3 0.0
25/05:30pm 10.8 7.9 6.4 74 2.1 SW 11 15 6 8 1020.8 - 0.0
25/05:00pm 12.0 8.3 6.3 68 2.7 SW 15 20 8 11 1020.4 - 0.0
25/04:30pm 12.8 8.2 5.5 61 3.4 SW 19 24 10 13 1020.1 - 0.0
25/04:00pm 12.4 8.0 6.7 68 2.7 WSW 19 24 10 13 1019.7 - 0.0
25/03:30pm 13.2 8.9 6.8 65 3.1 W 19 24 10 13 1019.6 - 0.0
25/03:00pm 13.5 9.0 5.9 60 3.6 W 19 24 10 13 1019.4 1019.6 0.0
25/02:30pm 13.5 9.8 6.4 62 3.4 WSW 15 24 8 13 1019.4 - 0.0
25/02:00pm 13.2 9.9 6.3 63 3.3 WSW 13 20 7 11 1019.4 - 0.0
25/01:30pm 14.9 12.0 4.6 50 4.8 W 9 17 5 9 1019.4 - 0.0
25/01:00pm 13.9 11.1 5.3 56 4.0 WSW 9 15 5 8 1019.7 - 0.0
25/12:30pm 13.3 10.4 6.4 63 3.3 WSW 11 15 6 8 1020.0 - 0.0
25/12:00pm 13.0 10.4 4.4 56 3.9 SW 7 13 4 7 1020.1 1020.3 0.0
25/11:30am 12.6 10.2 4.3 57 3.8 SE 6 9 3 5 1020.3 - 0.0
25/11:00am 11.5 8.6 4.7 63 3.1 S 9 11 5 6 1020.4 - 0.0
25/10:30am 11.4 9.2 5.1 65 2.9 SSW 6 9 3 5 1020.5 - 0.0
25/10:00am 10.2 7.8 4.1 66 2.7 SSW 6 9 3 5 1020.4 - 0.0
25/09:30am 10.0 8.2 5.2 72 2.2 N 4 6 2 3 1020.1 - 0.0
25/09:00am 9.3 7.0 4.9 74 2.0 E 6 7 3 4 1019.9 1020.1 0.0
25/08:30am 7.3 4.8 4.8 84 1.1 NE 7 11 4 6 1019.7 - 0.0
25/08:00am 5.3 2.3 4.0 91 0.6 NE 9 11 5 6 1019.6 - 0.0
25/07:30am 2.1 -2.2 0.9 92 0.5 NE 13 13 7 7 1019.2 - 0.0
25/07:00am 0.3 -4.3 -0.8 92 0.4 ENE 13 15 7 8 1018.9 - 0.0
25/06:30am 0.1 -4.1 -1.2 91 0.5 NE 11 13 6 7 1018.5 - 0.0
25/06:00am 0.5 -4.0 -0.6 92 0.4 NE 13 15 7 8 1017.9 1018.1 0.0
25/05:30am 0.9 -4.0 -0.2 92 0.4 NNE 15 17 8 9 1017.9 - 0.0
25/05:00am 0.1 -3.8 -1.2 91 0.5 ENE 9 11 5 6 1017.6 - 0.0
25/04:30am 0.9 -2.3 -0.5 90 0.5 SE 6 7 3 4 1017.3 - 0.0
25/04:00am 0.9 -2.3 -0.5 90 0.5 E 6 7 3 4 1017.0 - 0.0
25/03:30am 1.5 -2.2 0.0 90 0.5 NE 9 13 5 7 1016.8 - 0.0
25/03:00am 2.4 -0.8 0.9 90 0.6 NE 7 9 4 5 1016.8 1017.0 0.0
25/02:30am 2.7 -0.2 1.4 91 0.5 NE 6 9 3 5 1016.8 - 0.0
25/02:00am 2.3 -0.9 0.7 89 0.6 ENE 7 9 4 5 1016.8 - 0.0
25/01:30am 2.9 -0.6 1.0 87 0.7 NNE 9 11 5 6 1016.7 - 0.0
25/01:00am 5.1 1.8 2.6 84 1.0 E 9 13 5 7 1016.7 - 0.0
25/12:30am 4.4 1.1 2.3 86 0.8 E 9 13 5 7 1016.6 - 0.0
25/12:00am 5.5 1.9 3.0 84 1.0 ESE 11 15 6 8 1016.6 1016.8 0.0
 
Date/Time
CST
Temp
°C
App
Temp
°C
Dew
Point
°C
Rel
Hum
%
Delta-T
°C
Wind Press
QNH
hPa
Press
MSL
hPa
Rain since
9am
mm
Dir  Spd
km/h
Gust
km/h
Spd
kts
Gust
kts
24/11:30pm 4.4 1.1 2.3 86 0.8 E 9 11 5 6 1016.8 - 0.0
24/11:00pm 4.9 1.2 2.3 83 1.1 E 11 15 6 8 1016.6 - 0.0
24/10:30pm 4.8 1.1 2.3 84 1.0 E 11 13 6 7 1016.7 - 0.0
24/10:00pm 5.3 1.7 3.0 85 0.9 E 11 13 6 7 1016.7 - 0.0
24/09:30pm 5.9 2.8 3.4 84 1.0 E 9 13 5 7 1016.5 - 0.0
24/09:00pm 6.5 2.8 4.7 88 0.8 E 13 15 7 8 1016.4 1016.6 0.0
24/08:30pm 5.2 2.1 3.7 90 0.6 ENE 9 11 5 6 1016.2 - 0.0
24/08:00pm 5.0 2.2 3.3 89 0.7 ENE 7 9 4 5 1015.9 - 0.0

Other Formats:

Comma delimited format used in spreadsheet applications
http://www.bom.gov.au/fwo/IDS60801/IDS60801.95671.axf

JavaScript Object Notation format (JSON) in row-major order
http://www.bom.gov.au/fwo/IDS60801/IDS60801.95671.json